Accueil
METAR-TAF:

METAR-TAF

Aéroports :

Bradshaw Army Air Field

Bradshaw, Hawaï, États-Unis

latitude: 19-47N, longitude: 155-33W, altitude: 1887 m

Observation

Le bulletin a été fait il y a 34 minutes, à 01:15 UTC
Vent 14 kt de ouest
Température 22°C
Humidité 65%
Pression 1027 hPa
Visibilité: 14.5 km
Nuages épars à une hauteur de 1900 ft
Nuages fragmentés à une hauteur de 2600 ft

METAR: PHSF 230115Z AUTO 26014KT 9SM SCT019 BKN026 22/15 A3032 RMK AO2 WSHFT 01 CIG 019V026 SLP150 $

Heure: 15:49 (01:49 UTC)


TAF: absent

Observations et prévisions météorologiques de plus de 4000 aéroports (messages METAR et TAF).

Les stations disponibles sont représentées par des disques jaunes et rouges sur la carte.

Passer la souris dessus pour voir le nom de la station.

Cliquer dessus pour voir les observations et prévisions météorologiques.

Pour changer de carte: cliquez sur les boutons verts avec une croix noire pour zoomer, sur le bouton vert avec un tiret pour effectuer un zoom arrière, ou sur les flèches vertes pour les cartes adjacentes.


METAR-TAF: